Salomonia, Indiana
Current Conditions -  °F | °C
As of 2:35 AM on Monday 22 Dec 2014 (Local Time) from KVES Reporting Station
Clear Clear  
Wind Chill: 19°   Ceiling: Unl
Heat Index: 27°   Visibility: 7mi
Dew Point: 27°   Wind: 7mph
Humidity: 100%   Direction: 120°ESE
Pressure: 30.06"   Gusts: NA
Location:  40.3534°N, 84.8526°W
Report Text: KVES 220735Z AUTO 12006KT 7SM CLR M03/M03 A3006 RMK AO2
Loading
Personal Weather Stations






























Interactive Weather Map New forecast layout! Learn more

10-Day Weather Forecast

Advertisements
Track Severe Weather on mobile